Kennedy Heights, Ohio
Current Conditions -  °F | °C
As of 8:53 AM on Wednesday 28 Jan 2015 (Local Time) from KLUK Reporting Station
Haze Haze  
Wind Chill: -14°   Ceiling: Unl
Heat Index: -9°   Visibility: 3mi
Dew Point: -11°   Wind: 6mph
Humidity: 88%   Direction: 40°NE
Pressure: 30.41"   Gusts: NA
Location:  39.1805°N, 84.4198°W
Report Text: KLUK 281353Z 04005KT 3SM BR CLR M09/M11 A3041 RMK AO2 SLP303 T10891106
Loading
Personal Weather Stations






























Interactive Weather Map New forecast layout! Learn more

10-Day Weather Forecast

Advertisements
Track Severe Weather on mobile